Time,TemperatureF,DewpointF,PressureIn,WindDirection,WindDirectionDegrees,WindSpeedMPH,WindSpeedGustMPH,Humidity,HourlyPrecipIn,Conditions,Clouds,dailyrainin,SoftwareType,DateUTC
2013-09-24 00:04:00,59.0,51.0,29.93,ENE,78,0.0,3.0,75,0.00,,,0.00,weatherlink.com 1.10,2013-09-24 05:04:00,
2013-09-24 00:19:00,58.7,51.0,29.94,ESE,117,0.0,2.0,75,0.00,,,0.00,weatherlink.com 1.10,2013-09-24 05:19:00,
2013-09-24 00:34:00,58.6,51.0,29.93,ESE,105,0.0,3.0,76,0.00,,,0.00,weatherlink.com 1.10,2013-09-24 05:34:00,
2013-09-24 00:49:00,57.4,51.0,29.93,ENE,78,2.0,3.0,78,0.00,,,0.00,weatherlink.com 1.10,2013-09-24 05:49:00,
2013-09-24 01:04:00,56.4,51.0,29.93,ENE,78,2.0,2.0,81,0.00,,,0.00,weatherlink.com 1.10,2013-09-24 06:04:00,
2013-09-24 01:19:00,55.5,50.0,29.92,ENE,74,2.0,-999.0,83,-99.99,,,0.00,weatherlink.com 1.10,2013-09-24 06:19:00,
2013-09-24 01:34:00,55.1,51.0,29.92,East,94,2.0,2.0,85,0.00,,,0.00,weatherlink.com 1.10,2013-09-24 06:34:00,
2013-09-24 01:49:00,55.5,51.0,29.92,East,79,1.0,3.0,84,0.00,,,0.00,weatherlink.com 1.10,2013-09-24 06:49:00,
2013-09-24 02:04:00,55.7,51.0,29.93,ENE,72,1.0,2.0,84,0.00,,,0.00,weatherlink.com 1.10,2013-09-24 07:04:00,
2013-09-24 02:19:00,55.6,51.0,29.92,ENE,72,1.0,3.0,85,0.00,,,0.00,weatherlink.com 1.10,2013-09-24 07:19:00,
2013-09-24 02:34:00,55.2,51.0,29.92,East,82,1.0,3.0,86,0.00,,,0.00,weatherlink.com 1.10,2013-09-24 07:34:00,
2013-09-24 02:49:00,54.9,51.0,29.92,East,82,1.0,5.0,87,0.00,,,0.00,weatherlink.com 1.10,2013-09-24 07:49:00,
2013-09-24 03:04:00,54.5,51.0,29.92,ENE,75,2.0,3.0,87,0.00,,,0.00,weatherlink.com 1.10,2013-09-24 08:04:00,
2013-09-24 03:19:00,54.3,51.0,29.92,ESE,120,1.0,3.0,87,0.00,,,0.00,weatherlink.com 1.10,2013-09-24 08:19:00,
2013-09-24 03:34:00,54.0,51.0,29.92,East,82,1.0,4.0,88,0.00,,,0.00,weatherlink.com 1.10,2013-09-24 08:34:00,
2013-09-24 03:49:00,53.8,51.0,29.91,ENE,78,0.0,5.0,89,0.00,,,0.00,weatherlink.com 1.10,2013-09-24 08:49:00,
2013-09-24 04:04:00,53.6,51.0,29.92,ESE,115,0.0,3.0,90,0.00,,,0.00,weatherlink.com 1.10,2013-09-24 09:04:00,
2013-09-24 04:19:00,53.8,51.0,29.91,SE,141,0.0,5.0,89,0.00,,,0.00,weatherlink.com 1.10,2013-09-24 09:19:00,
2013-09-24 04:34:00,53.6,51.0,29.91,SE,129,3.0,4.0,90,0.00,,,0.00,weatherlink.com 1.10,2013-09-24 09:34:00,
2013-09-24 04:49:00,53.2,51.0,29.91,East,79,3.0,5.0,91,0.00,,,0.00,weatherlink.com 1.10,2013-09-24 09:49:00,
2013-09-24 05:04:00,53.0,51.0,29.91,ESE,120,1.0,5.0,91,0.00,,,0.00,weatherlink.com 1.10,2013-09-24 10:04:00,
2013-09-24 05:34:00,52.8,51.0,29.91,ESE,120,2.0,2.0,92,0.00,,,0.00,weatherlink.com 1.10,2013-09-24 10:34:00,
2013-09-24 05:49:00,52.6,50.0,29.91,East,94,2.0,4.0,92,0.00,,,0.00,weatherlink.com 1.10,2013-09-24 10:49:00,
2013-09-24 06:04:00,52.7,51.0,29.91,East,83,3.0,4.0,92,0.00,,,0.00,weatherlink.com 1.10,2013-09-24 11:04:00,
2013-09-24 06:19:00,52.6,50.0,29.91,ENE,70,2.0,4.0,92,0.00,,,0.00,weatherlink.com 1.10,2013-09-24 11:19:00,
2013-09-24 06:34:00,52.5,51.0,29.91,East,99,1.0,4.0,93,0.00,,,0.00,weatherlink.com 1.10,2013-09-24 11:34:00,
2013-09-24 06:49:00,52.4,51.0,29.91,ENE,64,2.0,4.0,93,0.00,,,0.00,weatherlink.com 1.10,2013-09-24 11:49:00,
2013-09-24 07:04:00,52.4,51.0,29.91,SE,143,0.0,4.0,93,0.00,,,0.00,weatherlink.com 1.10,2013-09-24 12:04:00,
2013-09-24 07:19:00,52.7,51.0,29.91,SE,128,1.0,4.0,93,0.00,,,0.00,weatherlink.com 1.10,2013-09-24 12:19:00,
2013-09-24 07:35:00,53.4,52.0,29.91,ENE,70,1.0,4.0,93,0.00,,,0.00,weatherlink.com 1.10,2013-09-24 12:35:00,
2013-09-24 07:50:00,54.1,52.0,29.90,SSE,162,2.0,4.0,91,0.00,,,0.00,weatherlink.com 1.10,2013-09-24 12:50:00,
2013-09-24 08:05:00,55.3,53.0,29.90,ENE,78,2.0,4.0,91,0.00,,,0.00,weatherlink.com 1.10,2013-09-24 13:05:00,
2013-09-24 08:20:00,56.7,53.0,29.90,ESE,115,4.0,5.0,88,0.00,,,0.00,weatherlink.com 1.10,2013-09-24 13:20:00,
2013-09-24 08:35:00,56.7,54.0,29.90,East,91,2.0,4.0,89,0.00,,,0.00,weatherlink.com 1.10,2013-09-24 13:35:00,
2013-09-24 08:50:00,57.4,54.0,29.90,ENE,74,2.0,4.0,88,0.00,,,0.00,weatherlink.com 1.10,2013-09-24 13:50:00,
2013-09-24 09:05:00,59.3,55.0,29.89,ESE,119,1.0,6.0,86,0.00,,,0.00,weatherlink.com 1.10,2013-09-24 14:05:00,
2013-09-24 09:20:00,59.5,55.0,29.89,ESE,106,1.0,9.0,86,0.00,,,0.00,weatherlink.com 1.10,2013-09-24 14:20:00,
2013-09-24 09:35:00,61.1,56.0,29.89,ENE,75,3.0,6.0,84,0.00,,,0.00,weatherlink.com 1.10,2013-09-24 14:35:00,
2013-09-24 09:50:00,62.4,58.0,29.88,ESE,123,4.0,6.0,84,0.00,,,0.00,weatherlink.com 1.10,2013-09-24 14:50:00,
2013-09-24 10:05:00,64.9,59.0,29.88,ENE,74,4.0,8.0,81,0.00,,,0.00,weatherlink.com 1.10,2013-09-24 15:05:00,
2013-09-24 10:20:00,66.6,60.0,29.88,SE,124,1.0,5.0,78,0.00,,,0.00,weatherlink.com 1.10,2013-09-24 15:20:00,
2013-09-24 10:35:00,66.9,59.0,29.88,SE,140,1.0,6.0,76,0.00,,,0.00,weatherlink.com 1.10,2013-09-24 15:35:00,
2013-09-24 10:50:00,66.4,59.0,29.89,SSE,150,0.0,3.0,78,0.00,,,0.00,weatherlink.com 1.10,2013-09-24 15:50:00,
2013-09-24 11:05:00,67.3,60.0,29.88,East,89,2.0,2.0,76,0.00,,,0.00,weatherlink.com 1.10,2013-09-24 16:05:00,
2013-09-24 11:20:00,67.7,60.0,29.88,East,93,0.0,3.0,77,0.00,,,0.00,weatherlink.com 1.10,2013-09-24 16:20:00,
2013-09-24 11:35:00,69.4,61.0,29.88,SE,137,1.0,4.0,75,0.00,,,0.00,weatherlink.com 1.10,2013-09-24 16:35:00,
2013-09-24 11:50:00,70.4,62.0,29.87,East,86,2.0,4.0,74,0.00,,,0.00,weatherlink.com 1.10,2013-09-24 16:50:00,
2013-09-24 12:05:00,71.9,62.0,29.86,SSE,156,2.0,7.0,71,0.00,,,0.00,weatherlink.com 1.10,2013-09-24 17:05:00,
2013-09-24 12:20:00,73.0,63.0,29.86,SE,130,2.0,5.0,70,0.00,,,0.00,weatherlink.com 1.10,2013-09-24 17:20:00,
2013-09-24 12:35:00,73.9,64.0,29.85,East,96,2.0,6.0,70,0.00,,,0.00,weatherlink.com 1.10,2013-09-24 17:35:00,
2013-09-24 12:50:00,74.7,64.0,29.85,ENE,71,2.0,5.0,69,0.00,,,0.00,weatherlink.com 1.10,2013-09-24 17:50:00,
2013-09-24 13:21:00,76.4,64.0,29.84,SW,214,4.0,7.0,65,0.00,,,0.00,weatherlink.com 1.10,2013-09-24 18:21:00,
2013-09-24 13:36:00,77.6,64.0,29.83,SE,125,3.0,6.0,64,0.00,,,0.00,weatherlink.com 1.10,2013-09-24 18:36:00,
2013-09-24 13:51:00,77.9,64.0,29.83,West,281,2.0,5.0,63,0.00,,,0.00,weatherlink.com 1.10,2013-09-24 18:51:00,
2013-09-24 14:06:00,78.0,64.0,29.82,ESE,105,3.0,10.0,62,0.00,,,0.00,weatherlink.com 1.10,2013-09-24 19:06:00,
2013-09-24 14:21:00,78.3,65.0,29.82,SW,235,1.0,8.0,63,0.00,,,0.00,weatherlink.com 1.10,2013-09-24 19:21:00,
2013-09-24 14:36:00,79.3,64.0,29.81,WSW,250,2.0,5.0,60,0.00,,,0.00,weatherlink.com 1.10,2013-09-24 19:36:00,
2013-09-24 14:51:00,78.7,65.0,29.80,SSW,211,2.0,7.0,62,0.00,,,0.00,weatherlink.com 1.10,2013-09-24 19:51:00,
2013-09-24 15:06:00,79.5,64.0,29.80,SE,130,3.0,8.0,59,0.00,,,0.00,weatherlink.com 1.10,2013-09-24 20:06:00,
2013-09-24 15:21:00,80.8,65.0,29.80,WSW,250,2.0,4.0,59,0.00,,,0.00,weatherlink.com 1.10,2013-09-24 20:21:00,
2013-09-24 15:36:00,80.2,64.0,29.79,WNW,297,1.0,7.0,59,0.00,,,0.00,weatherlink.com 1.10,2013-09-24 20:36:00,
2013-09-24 15:51:00,78.7,63.0,29.79,WNW,290,3.0,10.0,59,0.00,,,0.00,weatherlink.com 1.10,2013-09-24 20:51:00,
2013-09-24 16:06:00,79.7,64.0,29.79,East,86,3.0,8.0,60,0.00,,,0.00,weatherlink.com 1.10,2013-09-24 21:06:00,
2013-09-24 16:21:00,79.7,64.0,29.78,SE,129,2.0,7.0,58,0.00,,,0.00,weatherlink.com 1.10,2013-09-24 21:21:00,
2013-09-24 16:36:00,80.1,64.0,29.78,SW,230,1.0,6.0,58,0.00,,,0.00,weatherlink.com 1.10,2013-09-24 21:36:00,
2013-09-24 16:51:00,79.3,64.0,29.78,NE,46,1.0,5.0,59,0.00,,,0.00,weatherlink.com 1.10,2013-09-24 21:51:00,
2013-09-24 17:06:00,78.3,64.0,29.78,East,91,2.0,5.0,61,0.00,,,0.00,weatherlink.com 1.10,2013-09-24 22:06:00,
2013-09-24 17:21:00,78.8,63.0,29.78,SSE,156,3.0,8.0,59,0.00,,,0.00,weatherlink.com 1.10,2013-09-24 22:21:00,
2013-09-24 17:36:00,77.5,63.0,29.78,ESE,117,2.0,7.0,62,0.00,,,0.00,weatherlink.com 1.10,2013-09-24 22:36:00,
2013-09-24 17:51:00,76.1,63.0,29.78,SE,137,2.0,8.0,63,0.00,,,0.00,weatherlink.com 1.10,2013-09-24 22:51:00,
2013-09-24 18:06:00,74.7,63.0,29.78,ENE,71,4.0,5.0,66,0.00,,,0.00,weatherlink.com 1.10,2013-09-24 23:06:00,
2013-09-24 18:36:00,74.0,62.0,29.77,ESE,122,5.0,6.0,67,0.00,,,0.00,weatherlink.com 1.10,2013-09-24 23:36:00,
2013-09-24 18:51:00,73.2,62.0,29.77,East,86,6.0,7.0,67,0.00,,,0.00,weatherlink.com 1.10,2013-09-24 23:51:00,
2013-09-24 19:06:00,72.5,62.0,29.77,ESE,104,3.0,5.0,69,0.00,,,0.00,weatherlink.com 1.10,2013-09-25 00:06:00,
2013-09-24 19:21:00,71.8,62.0,29.77,SSE,158,2.0,5.0,71,0.00,,,0.00,weatherlink.com 1.10,2013-09-25 00:21:00,
2013-09-24 19:36:00,71.1,61.0,29.76,ENE,74,2.0,5.0,71,0.00,,,0.00,weatherlink.com 1.10,2013-09-25 00:36:00,
2013-09-24 19:51:00,69.9,62.0,29.77,ESE,119,1.0,5.0,75,0.00,,,0.00,weatherlink.com 1.10,2013-09-25 00:51:00,
2013-09-24 20:06:00,69.3,61.0,29.77,ENE,68,2.0,5.0,76,0.00,,,0.00,weatherlink.com 1.10,2013-09-25 01:06:00,
2013-09-24 20:21:00,69.1,61.0,29.78,ENE,77,4.0,6.0,76,0.00,,,0.00,weatherlink.com 1.10,2013-09-25 01:21:00,
2013-09-24 20:36:00,68.5,61.0,29.78,ESE,105,3.0,8.0,78,0.00,,,0.00,weatherlink.com 1.10,2013-09-25 01:36:00,
2013-09-24 20:51:00,67.9,62.0,29.78,ENE,72,5.0,9.0,81,0.00,,,0.00,weatherlink.com 1.10,2013-09-25 01:51:00,
2013-09-24 21:07:00,67.6,62.0,29.79,SE,130,5.0,7.0,83,0.00,,,0.00,weatherlink.com 1.10,2013-09-25 02:07:00,
2013-09-24 21:21:00,67.7,62.0,29.79,SSE,150,6.0,11.0,82,0.00,,,0.00,weatherlink.com 1.10,2013-09-25 02:21:00,
2013-09-24 21:36:00,67.4,62.0,29.78,East,92,3.0,12.0,83,0.00,,,0.00,weatherlink.com 1.10,2013-09-25 02:36:00,
2013-09-24 21:51:00,67.2,62.0,29.78,ESE,123,6.0,12.0,83,0.00,,,0.00,weatherlink.com 1.10,2013-09-25 02:51:00,
2013-09-24 22:06:00,67.0,62.0,29.79,SE,128,4.0,12.0,84,0.00,,,0.00,weatherlink.com 1.10,2013-09-25 03:06:00,
2013-09-24 22:21:00,67.1,63.0,29.79,East,98,4.0,10.0,85,0.00,,,0.00,weatherlink.com 1.10,2013-09-25 03:21:00,
2013-09-24 22:36:00,67.0,63.0,29.79,East,81,2.0,9.0,87,0.00,,,0.00,weatherlink.com 1.10,2013-09-25 03:36:00,
2013-09-24 22:52:00,67.0,63.0,29.80,ESE,113,2.0,5.0,87,0.00,,,0.00,weatherlink.com 1.10,2013-09-25 03:52:00,
2013-09-24 23:07:00,66.8,63.0,29.81,ESE,120,1.0,4.0,88,0.00,,,0.00,weatherlink.com 1.10,2013-09-25 04:07:00,
2013-09-24 23:22:00,66.7,63.0,29.80,West,262,0.0,5.0,89,0.00,,,0.00,weatherlink.com 1.10,2013-09-25 04:22:00,
2013-09-24 23:37:00,66.6,63.0,29.81,West,277,2.0,3.0,89,0.00,,,0.00,weatherlink.com 1.10,2013-09-25 04:37:00,
2013-09-24 23:52:00,66.7,63.0,29.81,WNW,288,0.0,2.0,89,0.00,,,0.00,weatherlink.com 1.10,2013-09-25 04:52:00,